Time;durP1;ratioP1;P1;durP2;ratioP2;P2;SDS_P1;SDS_P2;PMS_P1;PMS_P2;Temp;Humidity;BMP_temperature;BMP_pressure;BME280_temperature;BME280_humidity;BME280_pressure;Samples;Min_cycle;Max_cycle;Signal;HPM_P1;HPM_P2
2022/05/09 00:02:14;;;;;;;10.15;4.07;;;;;;;9.20;81.11;67798.97;6035431;23;20024;-85
2022/05/09 00:04:39;;;;;;;14.02;4.72;;;;;;;9.19;81.29;67795.19;6033426;23;20026;-86
2022/05/09 00:07:05;;;;;;;15.20;5.18;;;;;;;9.18;81.28;67793.50;6035243;23;20094;-85
2022/05/09 00:09:31;;;;;;;10.30;4.40;;;;;;;9.09;81.47;67789.19;6011631;23;20099;-86
2022/05/09 00:11:56;;;;;;;11.63;4.80;;;;;;;;;;6036387;23;20015;-84
2022/05/09 00:14:23;;;;;;;12.07;4.78;;;;;;;9.00;81.85;67774.22;6036056;23;20342;-85
2022/05/09 00:16:50;;;;;;;11.70;4.68;;;;;;;8.96;82.23;67769.13;6032611;23;20012;-84
2022/05/09 00:19:17;;;;;;;14.13;5.00;;;;;;;8.86;82.22;67758.38;6009679;23;20019;-85
2022/05/09 00:21:43;;;;;;;8.60;4.22;;;;;;;;;;6036041;23;20023;-84
2022/05/09 00:24:12;;;;;;;14.55;4.65;;;;;;;8.77;82.79;67748.16;6011238;23;20819;-84
2022/05/09 00:26:38;;;;;;;12.82;4.88;;;;;;;8.68;83.31;67741.19;6011434;23;20075;-84
2022/05/09 00:29:04;;;;;;;11.25;4.60;;;;;;;8.68;83.62;67740.63;6036156;23;20046;-85
2022/05/09 00:31:30;;;;;;;10.63;4.70;;;;;;;8.68;83.26;67743.28;6036197;23;20023;-87
2022/05/09 00:33:56;;;;;;;12.70;4.47;;;;;;;8.70;83.26;67740.22;6011843;23;20046;-87
2022/05/09 00:36:22;;;;;;;11.32;4.72;;;;;;;8.64;83.18;67734.00;6036525;23;20373;-85
2022/05/09 00:38:49;;;;;;;8.48;4.53;;;;;;;8.61;83.75;67730.59;6037306;23;20015;-85
2022/05/09 00:44:01;;;;;;;12.70;4.85;;;;;;;8.58;83.81;67732.50;6037390;23;20026;-87
2022/05/09 00:46:28;;;;;;;11.80;4.43;;;;;;;8.47;84.16;67714.75;6038304;23;20369;-87
2022/05/09 00:48:53;;;;;;;11.63;5.13;;;;;;;;;;6012477;23;20361;-85
2022/05/09 00:51:23;;;;;;;12.93;5.28;;;;;;;8.46;84.12;67713.59;6040482;23;20023;-86
2022/05/09 00:53:52;;;;;;;10.43;4.38;;;;;;;8.45;84.18;67715.13;6041286;23;20019;-86
2022/05/09 00:56:25;;;;;;;16.40;4.78;;;;;;;8.35;84.70;67701.69;6015498;23;20015;-86
2022/05/09 00:59:00;;;;;;;16.02;5.40;;;;;;;8.30;84.80;67699.25;6046866;23;20035;-90
2022/05/09 01:01:26;;;;;;;11.82;5.22;;;;;;;8.30;84.97;67696.59;6034559;23;20026;-88
2022/05/09 01:04:07;;;;;;;13.68;4.88;;;;;;;8.18;85.24;67682.44;6047669;23;20023;-87
2022/05/09 01:06:33;;;;;;;12.15;4.95;;;;;;;8.18;85.37;67682.44;6048779;23;20029;-84
2022/05/09 01:08:59;;;;;;;12.40;4.85;;;;;;;8.16;85.31;67683.38;6084540;23;20082;-86
2022/05/09 01:11:27;;;;;;;11.98;5.13;;;;;;;8.13;85.31;67682.63;6062114;23;20038;-85
2022/05/09 01:14:02;;;;;;;12.93;5.60;;;;;;;8.10;85.77;67673.94;6058529;23;20050;-85
2022/05/09 01:16:27;;;;;;;13.10;5.00;;;;;;;8.03;85.88;67668.69;6086773;23;20019;-85
2022/05/09 01:18:53;;;;;;;14.32;7.10;;;;;;;;;;6065471;23;20075;-84
2022/05/09 01:21:38;;;;;;;14.43;5.05;;;;;;;7.94;86.20;67655.81;6065022;23;20027;-83
2022/05/09 01:24:12;;;;;;;18.50;5.38;;;;;;;7.94;86.40;67656.41;6064210;23;20028;-84
2022/05/09 01:26:37;;;;;;;12.05;5.15;;;;;;;7.90;86.55;67652.41;6062656;23;20023;-85
2022/05/09 01:29:13;;;;;;;15.43;5.20;;;;;;;7.87;86.57;67649.03;6062064;23;20492;-85
2022/05/09 01:31:41;;;;;;;11.75;5.63;;;;;;;7.78;87.22;67641.50;6064880;23;20019;-84
2022/05/09 01:34:09;;;;;;;11.07;5.28;;;;;;;7.79;87.30;67639.97;6063485;23;20061;-85
2022/05/09 01:36:36;;;;;;;12.50;5.63;;;;;;;7.83;86.68;67643.94;6066242;23;20050;-85
2022/05/09 01:39:11;;;;;;;12.88;5.53;;;;;;;7.82;86.71;67646.00;6062482;23;20019;-83
2022/05/09 01:41:43;;;;;;;12.20;5.38;;;;;;;7.75;86.92;67638.09;6066122;23;20388;-87
2022/05/09 01:44:10;;;;;;;15.20;5.28;;;;;;;7.77;86.86;67640.38;6064391;23;20026;-85
2022/05/09 01:49:29;;;;;;;12.20;4.72;;;;;;;7.80;86.61;67646.41;6070501;23;20021;-87
2022/05/09 01:49:31;;;;;;;13.88;5.53;;;;;;;7.77;86.80;67637.72;6078113;23;20029;-87
2022/05/09 01:52:03;;;;;;;15.63;5.90;;;;;;;7.73;86.86;67632.63;6079156;23;20037;-86
2022/05/09 01:54:29;;;;;;;15.02;6.15;;;;;;;7.63;87.06;67627.16;6079517;23;20015;-84
2022/05/09 01:56:55;;;;;;;12.80;5.75;;;;;;;7.66;86.88;67625.81;6079058;23;20060;-85
2022/05/09 01:59:21;;;;;;;16.58;6.10;;;;;;;7.67;87.06;67626.94;6074656;23;20079;-85
2022/05/09 02:01:55;;;;;;;14.50;6.32;;;;;;;7.66;86.97;67631.13;6064345;23;20619;-84
2022/05/09 02:04:22;;;;;;;18.70;5.75;;;;;;;;;;6013450;23;20029;-83
2022/05/09 02:06:47;;;;;;;17.70;6.32;;;;;;;7.61;86.93;67620.16;6061207;23;20029;-83
2022/05/09 02:09:13;;;;;;;14.38;6.10;;;;;;;7.58;87.48;67618.84;6064450;23;20357;-86
2022/05/09 02:11:38;;;;;;;15.45;5.75;;;;;;;7.54;87.38;67611.66;6064167;23;20015;-85
2022/05/09 02:14:04;;;;;;;11.27;5.60;;;;;;;7.58;87.25;67616.75;6085067;23;20022;-84
2022/05/09 02:16:30;;;;;;;14.05;6.10;;;;;;;7.57;87.14;67617.72;6064745;23;20023;-83
2022/05/09 02:18:55;;;;;;;15.45;5.80;;;;;;;7.56;87.18;67616.59;6061970;23;20030;-85
2022/05/09 02:21:21;;;;;;;15.60;5.88;;;;;;;7.52;87.49;67614.72;6065140;23;20019;-84
2022/05/09 02:23:47;;;;;;;16.95;6.15;;;;;;;7.51;87.47;67608.28;6063281;23;20066;-82
2022/05/09 02:26:12;;;;;;;12.25;5.72;;;;;;;7.50;87.56;67607.16;6062923;23;20042;-84
2022/05/09 02:28:38;;;;;;;13.73;5.50;;;;;;;7.50;87.58;67607.72;6064097;23;20010;-84
2022/05/09 02:31:04;;;;;;;12.82;5.57;;;;;;;7.48;87.43;67610.75;6063927;23;20019;-85
2022/05/09 02:33:30;;;;;;;13.77;5.72;;;;;;;7.43;87.50;67603.00;6065095;23;20023;-87
2022/05/09 02:35:58;;;;;;;14.43;5.60;;;;;;;7.46;87.29;67606.41;6064143;23;20018;-85
2022/05/09 02:38:24;;;;;;;18.75;6.43;;;;;;;7.40;87.93;67599.03;6062871;23;20021;-86
2022/05/09 02:40:51;;;;;;;14.65;6.13;;;;;;;7.34;88.04;67592.25;6063140;23;20057;-86
2022/05/09 02:43:16;;;;;;;18.65;6.63;;;;;;;7.31;88.06;67586.19;6064919;23;20023;-86
2022/05/09 02:45:42;;;;;;;15.13;6.18;;;;;;;7.33;88.00;67591.69;6063822;23;20041;-85
2022/05/09 02:48:08;;;;;;;11.77;5.78;;;;;;;7.21;88.76;67581.31;6063534;23;20070;-85
2022/05/09 02:50:34;;;;;;;16.60;6.20;;;;;;;7.24;88.88;67579.41;6067445;23;20018;-88
2022/05/09 02:52:59;;;;;;;13.43;6.22;;;;;;;7.26;88.40;67585.84;6064711;23;20098;-86
2022/05/09 02:55:24;;;;;;;14.25;6.47;;;;;;;7.28;88.59;67586.03;6061912;23;20014;-86
2022/05/09 02:57:50;;;;;;;14.70;6.15;;;;;;;7.28;88.52;67583.38;6063130;23;20074;-86
2022/05/09 03:00:19;;;;;;;14.55;6.35;;;;;;;7.28;88.36;67582.81;6067122;23;20038;-85
2022/05/09 03:04:38;;;;;;;;;;;;;;;7.26;88.09;67580.56;6070278;23;20019;-85
2022/05/09 03:05:30;;;;;;;14.10;6.35;;;;;;;7.12;89.05;67565.84;6065176;23;19917;-85
2022/05/09 03:07:56;;;;;;;10.93;6.15;;;;;;;7.09;89.21;67565.09;6092896;23;20042;-86
2022/05/09 03:10:23;;;;;;;16.88;6.32;;;;;;;7.05;89.31;67560.56;6069514;23;20098;-88
2022/05/09 03:12:49;;;;;;;12.48;6.22;;;;;;;7.05;89.37;67557.34;6070470;23;20030;-87
2022/05/09 03:15:16;;;;;;;17.80;6.38;;;;;;;7.03;89.39;67557.75;6072373;23;20034;-89
2022/05/09 03:17:41;;;;;;;12.70;6.50;;;;;;;7.06;89.25;67558.50;6068284;23;20050;-86
2022/05/09 03:20:07;;;;;;;15.13;6.50;;;;;;;7.01;89.65;67556.03;6070194;23;20014;-85
2022/05/09 03:22:32;;;;;;;14.57;6.38;;;;;;;6.97;89.54;67549.44;6072211;23;20043;-87
2022/05/09 03:24:57;;;;;;;16.55;7.30;;;;;;;6.95;90.02;67554.53;6066302;23;20022;-86
2022/05/09 03:27:24;;;;;;;15.18;6.60;;;;;;;6.90;89.97;67546.78;6066316;23;20019;-86
2022/05/09 03:29:49;;;;;;;14.10;6.63;;;;;;;6.92;89.46;67543.78;6061603;23;20079;-84
2022/05/09 03:32:14;;;;;;;16.10;6.50;;;;;;;6.90;89.84;67543.59;6064411;23;20015;-85
2022/05/09 03:34:40;;;;;;;12.82;6.15;;;;;;;6.86;90.10;67541.72;6064569;23;20513;-87
2022/05/09 03:37:06;;;;;;;14.98;7.68;;;;;;;6.77;90.20;67532.09;6062389;23;20019;-84
2022/05/09 03:39:32;;;;;;;17.17;6.97;;;;;;;6.73;90.82;67527.56;6065455;23;20015;-85
2022/05/09 03:41:57;;;;;;;14.55;6.80;;;;;;;6.73;91.08;67524.91;6065194;23;20030;-85
2022/05/09 03:44:22;;;;;;;13.80;7.03;;;;;;;6.72;90.92;67523.78;6064698;23;20014;-86
2022/05/09 03:46:48;;;;;;;14.60;6.78;;;;;;;6.66;90.86;67519.66;6062151;23;20017;-84
2022/05/09 03:49:14;;;;;;;16.42;7.20;;;;;;;6.66;91.32;67517.00;6065021;23;20030;-83
2022/05/09 03:51:39;;;;;;;19.20;7.50;;;;;;;6.64;91.36;67515.31;6064260;23;20019;-85
2022/05/09 03:54:04;;;;;;;18.50;7.68;;;;;;;;;;6085985;23;20011;-86
2022/05/09 03:56:30;;;;;;;17.73;7.53;;;;;;;;;;6063816;23;20022;-88
2022/05/09 03:58:55;;;;;;;15.73;7.10;;;;;;;6.53;91.96;67500.81;6061837;23;20023;-84
2022/05/09 04:01:21;;;;;;;19.10;7.05;;;;;;;6.54;91.93;67507.22;6064751;23;20082;-82
2022/05/09 04:03:46;;;;;;;11.05;6.18;;;;;;;6.56;91.80;67506.28;6064411;23;20074;-82
2022/05/09 04:06:13;;;;;;;18.88;7.20;;;;;;;6.60;91.84;67512.88;6045933;23;20034;-84
2022/05/09 04:08:38;;;;;;;18.52;7.68;;;;;;;6.54;91.95;67507.22;6013427;23;20110;-85
2022/05/09 04:11:03;;;;;;;14.57;7.32;;;;;;;6.52;92.48;67501.75;6035783;23;20466;-83
2022/05/09 04:13:29;;;;;;;17.30;7.03;;;;;;;6.51;92.58;67500.63;6039872;23;20023;-83
2022/05/09 04:18:42;;;;;;;14.73;6.88;;;;;;;6.49;92.71;67501.56;6036278;23;20026;-84
2022/05/09 04:21:10;;;;;;;14.48;7.88;;;;;;;6.51;92.31;67503.81;6011303;23;20822;-84
2022/05/09 04:23:36;;;;;;;17.48;7.82;;;;;;;6.52;92.52;67504.94;6038297;23;20015;-85
2022/05/09 04:26:02;;;;;;;15.15;7.57;;;;;;;6.51;92.81;67501.19;6047979;23;20648;-84
2022/05/09 04:28:27;;;;;;;16.10;7.47;;;;;;;6.55;92.56;67502.47;6053873;23;20016;-85
2022/05/09 04:30:53;;;;;;;17.27;7.40;;;;;;;6.53;92.60;67500.81;6046451;23;20098;-83
2022/05/09 04:33:19;;;;;;;16.30;7.90;;;;;;;6.58;92.80;67508.53;6012758;23;20052;-83
2022/05/09 04:35:45;;;;;;;20.25;8.85;;;;;;;6.63;92.47;67510.97;6034700;23;20083;-86
2022/05/09 04:38:16;;;;;;;13.13;7.35;;;;;;;6.63;92.48;67514.19;6010134;23;20016;-87
2022/05/09 04:40:42;;;;;;;21.23;7.90;;;;;;;6.61;93.02;67509.28;6033773;23;20026;-86
2022/05/09 04:43:07;;;;;;;17.55;7.40;;;;;;;6.70;92.70;67521.53;6008077;23;22132;-85
2022/05/09 04:45:33;;;;;;;16.33;7.43;;;;;;;6.77;92.43;67532.09;6034333;23;20019;-88
2022/05/09 04:47:59;;;;;;;18.05;8.30;;;;;;;6.84;91.78;67540.00;6005572;23;20366;-85
2022/05/09 04:50:26;;;;;;;15.60;7.25;;;;;;;6.84;92.06;67537.38;6033019;23;20521;-86
2022/05/09 04:52:52;;;;;;;17.63;8.10;;;;;;;6.91;92.31;67542.66;6031098;23;20019;-84
2022/05/09 04:55:18;;;;;;;14.65;7.20;;;;;;;6.93;92.24;67546.97;6030215;23;20026;-84
2022/05/09 04:57:44;;;;;;;17.10;7.45;;;;;;;6.97;92.64;67552.06;6031435;23;20030;-85
2022/05/09 05:00:13;;;;;;;20.23;7.57;;;;;;;7.07;92.28;67564.91;6030977;23;20030;-85
2022/05/09 05:02:38;;;;;;;29.55;8.77;;;;;;;7.16;92.02;67572.44;6007483;23;20079;-86
2022/05/09 05:05:05;;;;;;;14.95;7.88;;;;;;;7.22;91.82;67579.22;6027545;23;20098;-87
2022/05/09 05:07:31;;;;;;;23.13;9.02;;;;;;;7.28;91.63;67586.03;6004387;23;20457;-86
2022/05/09 05:09:56;;;;;;;16.13;7.38;;;;;;;7.34;91.63;67590.19;6029316;23;20035;-87
2022/05/09 05:12:23;;;;;;;18.73;8.05;;;;;;;7.46;91.46;67603.75;6028329;23;20050;-87
2022/05/09 05:14:48;;;;;;;17.27;8.02;;;;;;;7.46;91.49;67603.19;6027661;23;20037;-87
2022/05/09 05:17:14;;;;;;;19.40;8.63;;;;;;;7.50;91.59;67607.16;6026847;23;20651;-88
2022/05/09 05:19:44;;;;;;;21.73;8.45;;;;;;;7.63;90.84;67625.06;6019628;23;20102;-86
2022/05/09 05:22:12;;;;;;;18.88;8.43;;;;;;;7.70;90.66;67635.09;6026533;23;20106;-87
2022/05/09 05:24:38;;;;;;;19.43;8.00;;;;;;;7.74;91.18;67634.31;6003239;23;20027;-87
2022/05/09 05:27:05;;;;;;;14.40;7.60;;;;;;;7.86;90.55;67650.56;6003495;23;20080;-88
2022/05/09 05:29:30;;;;;;;13.63;7.25;;;;;;;;;;6029017;23;20527;-87
2022/05/09 05:31:56;;;;;;;19.60;7.50;;;;;;;;;;6028842;23;20039;-86
2022/05/09 05:34:21;;;;;;;14.75;7.25;;;;;;;8.18;89.86;67682.44;6030813;23;20015;-87
2022/05/09 05:36:50;;;;;;;17.85;7.53;;;;;;;8.27;89.45;67692.63;6007200;23;20026;-86
2022/05/09 05:39:16;;;;;;;15.00;7.53;;;;;;;8.40;88.92;67710.03;6003950;23;20019;-86
2022/05/09 05:41:44;;;;;;;16.75;7.80;;;;;;;8.50;88.65;67718.72;6008048;23;20070;-87
2022/05/09 05:44:13;;;;;;;17.85;7.75;;;;;;;8.55;88.21;67723.81;6032749;23;20023;-85
2022/05/09 05:46:42;;;;;;;17.70;7.32;;;;;;;8.66;87.44;67738.34;6036089;23;20016;-85
2022/05/09 05:49:09;;;;;;;15.13;7.05;;;;;;;8.78;86.99;67749.88;6036909;23;20024;-86
2022/05/09 05:51:36;;;;;;;20.60;7.57;;;;;;;8.85;86.95;67759.88;6039359;23;20383;-87
2022/05/09 05:54:01;;;;;;;18.50;7.28;;;;;;;;;;6036457;23;20419;-86
2022/05/09 05:56:26;;;;;;;21.83;8.23;;;;;;;;;;6039397;23;20019;-86
2022/05/09 05:58:52;;;;;;;14.15;6.50;;;;;;;9.25;85.44;67806.75;6039185;23;20015;-86
2022/05/09 06:01:18;;;;;;;17.80;7.60;;;;;;;9.33;84.89;67809.94;6040497;23;20019;-86
2022/05/09 06:03:44;;;;;;;12.63;6.47;;;;;;;9.43;84.73;67821.81;6041933;23;20022;-87
2022/05/09 06:06:09;;;;;;;18.25;7.07;;;;;;;9.53;83.71;67832.06;6071358;23;20042;-87
2022/05/09 06:08:38;;;;;;;17.27;7.22;;;;;;;9.66;83.22;67847.34;6069807;23;20097;-84
2022/05/09 06:11:07;;;;;;;19.77;7.25;;;;;;;9.76;83.01;67857.56;6067929;23;20015;-85
2022/05/09 06:13:32;;;;;;;;;;;;;;;9.84;82.40;67869.28;6071733;23;20015;-85
2022/05/09 06:15:57;;;;;;;15.05;7.18;;;;;;;;;;6069150;23;19988;-84
2022/05/09 06:18:23;;;;;;;16.20;7.70;;;;;;;;;;6070124;23;20026;-84
2022/05/09 06:20:48;;;;;;;13.55;7.15;;;;;;;;;;6061943;23;20025;-84
2022/05/09 06:23:16;;;;;;;16.70;6.90;;;;;;;10.35;81.17;67923.38;6061843;23;20023;-84
2022/05/09 06:25:43;;;;;;;17.02;6.88;;;;;;;10.48;80.19;67938.13;6060615;23;20266;-84
2022/05/09 06:28:09;;;;;;;17.33;7.00;;;;;;;10.55;80.18;67945.50;6061935;23;20449;-84
2022/05/09 06:30:35;;;;;;;17.20;6.15;;;;;;;;;;6063787;23;20090;-84
2022/05/09 06:33:00;;;;;;;13.23;6.65;;;;;;;10.81;79.39;67975.00;6063561;23;20034;-83
2022/05/09 06:35:27;;;;;;;12.88;6.50;;;;;;;10.94;79.13;67991.84;6068210;23;20015;-84
2022/05/09 06:37:59;;;;;;;15.88;6.93;;;;;;;10.99;78.62;67994.28;6087067;23;20015;-83
2022/05/09 06:40:24;;;;;;;19.65;6.95;;;;;;;;;;6062862;23;20093;-83
2022/05/09 06:42:51;;;;;;;11.43;5.68;;;;;;;11.26;76.90;68027.06;6064683;23;20063;-84
2022/05/09 06:45:17;;;;;;;16.73;6.63;;;;;;;11.44;75.43;68044.25;6087003;23;20026;-84
2022/05/09 06:47:47;;;;;;;17.55;6.47;;;;;;;11.67;75.52;68069.81;6063881;23;20031;-84
2022/05/09 06:50:13;;;;;;;11.30;5.85;;;;;;;;;;6065672;23;20102;-84
2022/05/09 06:52:38;;;;;;;14.02;6.15;;;;;;;;;;6065167;23;20042;-84
2022/05/09 06:55:04;;;;;;;16.73;4.90;;;;;;;;;;6062112;23;20043;-84
2022/05/09 06:57:29;;;;;;;11.25;5.03;;;;;;;12.04;72.17;68110.72;6061644;23;20022;-84
2022/05/09 06:59:54;;;;;;;12.35;5.80;;;;;;;12.15;71.16;68126.47;6066622;23;20022;-84
2022/05/09 07:02:20;;;;;;;14.60;5.00;;;;;;;12.27;70.94;68131.53;6068942;23;20015;-84
2022/05/09 07:04:45;;;;;;;13.60;5.82;;;;;;;;;;6064321;23;20018;-84
2022/05/09 07:07:10;;;;;;;14.80;5.23;;;;;;;;;;6037478;23;20458;-83
2022/05/09 07:09:36;;;;;;;12.63;5.30;;;;;;;12.55;69.20;68168.13;6038921;23;20962;-84
2022/05/09 07:12:01;;;;;;;10.63;5.03;;;;;;;12.73;69.51;68188.00;6043076;23;20252;-84
2022/05/09 07:14:27;;;;;;;9.43;4.60;;;;;;;12.98;69.00;68209.97;6012132;23;20027;-83
2022/05/09 07:16:52;;;;;;;13.23;4.47;;;;;;;;;;6011277;23;20019;-84
2022/05/09 07:19:17;;;;;;;13.23;4.60;;;;;;;;;;6038468;23;20015;-85
2022/05/09 07:21:43;;;;;;;13.52;4.43;;;;;;;13.23;67.64;68243.72;6036304;23;20260;-84
2022/05/09 07:24:09;;;;;;;12.00;4.90;;;;;;;13.38;67.95;68260.25;6013079;23;20034;-84
2022/05/09 07:26:36;;;;;;;13.18;4.97;;;;;;;13.59;66.84;68283.00;6035439;23;20019;-83
2022/05/09 07:29:01;;;;;;;15.52;4.78;;;;;;;13.70;65.54;68295.50;6035106;23;20042;-83
2022/05/09 07:31:27;;;;;;;13.52;4.30;;;;;;;13.85;64.01;68312.56;6039265;23;20438;-82
2022/05/09 07:33:52;;;;;;;12.80;4.10;;;;;;;;;;6011785;23;20015;-83
2022/05/09 07:36:17;;;;;;;9.17;4.47;;;;;;;13.99;62.43;68323.16;6040085;23;20135;-83
2022/05/09 07:38:43;;;;;;;11.68;4.38;;;;;;;14.11;62.98;68336.22;6036692;23;20259;-83
2022/05/09 07:41:08;;;;;;;15.73;4.30;;;;;;;;;;6037430;23;20558;-83
2022/05/09 07:43:33;;;;;;;9.73;4.30;;;;;;;14.37;60.67;68370.03;6040225;23;20046;-83
2022/05/09 07:45:59;;;;;;;10.35;3.90;;;;;;;14.40;59.38;68373.47;6039317;23;20023;-84
2022/05/09 07:48:27;;;;;;;8.23;3.60;;;;;;;14.57;60.50;68387.47;6043084;23;20015;-84
2022/05/09 07:50:54;;;;;;;14.00;4.13;;;;;;;14.82;59.50;68414.81;6045910;23;20012;-83
2022/05/09 07:53:40;;;;;;;11.40;3.95;;;;;;;14.94;59.07;68428.47;6048091;23;20023;-83
2022/05/09 07:56:06;;;;;;;12.13;4.40;;;;;;;15.06;58.30;68446.94;6026479;23;20019;-83
2022/05/09 07:58:32;;;;;;;12.73;4.35;;;;;;;;;;6027971;23;20015;-82
2022/05/09 08:00:58;;;;;;;11.05;3.58;;;;;;;15.23;56.98;68466.28;6020705;23;20350;-82
2022/05/09 08:03:26;;;;;;;9.48;3.17;;;;;;;15.42;57.36;68486.78;6037337;23;20027;-82
2022/05/09 08:05:56;;;;;;;8.68;3.55;;;;;;;15.61;55.67;68507.88;6035883;23;20019;-82
2022/05/09 08:08:21;;;;;;;8.98;3.47;;;;;;;15.61;55.46;68502.50;6037610;23;20011;-82
2022/05/09 08:10:47;;;;;;;9.57;3.53;;;;;;;15.73;55.93;68516.19;6013812;23;20644;-82
2022/05/09 08:13:14;;;;;;;10.82;3.85;;;;;;;15.87;56.53;68529.47;6039318;23;20116;-82
2022/05/09 08:15:41;;;;;;;10.27;3.88;;;;;;;15.85;54.17;68534.66;6013288;23;20811;-82
2022/05/09 08:18:06;;;;;;;7.28;3.15;;;;;;;15.94;53.71;68540.13;6038581;23;20473;-82
2022/05/09 08:20:34;;;;;;;9.13;3.70;;;;;;;;;;6013850;23;20015;-82
2022/05/09 08:23:06;;;;;;;8.25;3.08;;;;;;;15.97;53.85;68548.34;6011607;23;20074;-82
2022/05/09 08:25:37;;;;;;;8.45;3.35;;;;;;;16.15;54.09;68568.88;6035414;23;20098;-81
2022/05/09 08:28:03;;;;;;;11.23;3.35;;;;;;;;;;6033918;23;20034;-82
2022/05/09 08:30:32;;;;;;;9.13;3.58;;;;;;;16.66;51.82;68625.31;6035707;23;20023;-81
2022/05/09 08:32:58;;;;;;;9.48;3.22;;;;;;;;;;6033882;23;20019;-82
2022/05/09 08:35:23;;;;;;;11.77;3.75;;;;;;;;;;6035783;23;20074;-82
2022/05/09 08:37:49;;;;;;;8.73;3.20;;;;;;;16.47;52.39;68604.78;6033894;23;20027;-82
2022/05/09 08:40:15;;;;;;;10.55;2.90;;;;;;;16.85;52.22;68641.59;6037542;23;20083;-81
2022/05/09 08:42:56;;;;;;;8.40;3.35;;;;;;;;;;6034701;23;20038;-81
2022/05/09 08:45:35;;;;;;;8.30;3.30;;;;;;;16.87;49.87;68649.28;6034784;23;20026;-82
2022/05/09 08:48:08;;;;;;;10.13;3.78;;;;;;;16.78;51.17;68633.06;6008896;23;20019;-82
2022/05/09 08:50:52;;;;;;;10.07;3.42;;;;;;;;;;6037784;23;20019;-82
2022/05/09 08:53:25;;;;;;;7.95;2.95;;;;;;;17.06;52.13;68670.38;6036032;23;20086;-82
2022/05/09 08:55:51;;;;;;;9.52;2.80;;;;;;;;;;6036905;23;20517;-82
2022/05/09 08:58:29;;;;;;;8.48;2.53;;;;;;;17.41;50.41;68703.78;6034595;23;20020;-81
2022/05/09 09:00:55;;;;;;;8.48;2.67;;;;;;;17.51;49.12;68709.81;6033455;23;20020;-82
2022/05/09 09:03:34;;;;;;;7.68;2.80;;;;;;;17.54;49.92;68715.34;6036026;23;20111;-81
2022/05/09 09:06:21;;;;;;;8.80;3.20;;;;;;;17.77;49.71;68749.09;6034379;23;20037;-82
2022/05/09 09:08:58;;;;;;;9.07;2.90;;;;;;;17.92;50.55;68757.59;6034952;23;20030;-81
2022/05/09 09:11:42;;;;;;;10.07;2.95;;;;;;;18.22;50.36;68794.53;6035484;23;20094;-82
2022/05/09 09:14:34;;;;;;;7.13;3.00;;;;;;;18.40;48.26;68813.94;6034625;23;20015;-82
2022/05/09 09:17:24;;;;;;;10.73;2.72;;;;;;;18.29;49.91;68806.75;5998690;23;20027;-82
2022/05/09 09:20:08;;;;;;;9.63;3.15;;;;;;;18.55;48.31;68830.50;6037046;23;20019;-82
2022/05/09 09:23:07;;;;;;;8.07;2.88;;;;;;;18.75;45.78;68853.34;6038321;23;20050;-81
2022/05/09 09:25:44;;;;;;;7.35;2.50;;;;;;;;;;6035948;23;20608;-81
2022/05/09 09:28:32;;;;;;;5.43;2.38;;;;;;;18.71;47.80;68846.63;6036736;23;20083;-82
2022/05/09 09:30:58;;;;;;;6.40;2.42;;;;;;;18.93;49.10;68870.63;6037206;23;20019;-82
2022/05/09 09:33:24;;;;;;;8.27;2.75;;;;;;;18.70;47.13;68848.19;6039124;23;20022;-82
2022/05/09 09:36:02;;;;;;;7.60;2.88;;;;;;;18.71;47.03;68849.34;6036981;23;20062;-82
2022/05/09 09:38:53;;;;;;;5.65;2.58;;;;;;;19.02;47.56;68883.63;6011644;23;20620;-81
2022/05/09 09:41:22;;;;;;;6.28;2.60;;;;;;;18.97;47.73;68877.91;6036183;23;20468;-81
2022/05/09 09:43:48;;;;;;;9.38;3.15;;;;;;;19.35;47.32;68920.19;6037008;23;20336;-81
2022/05/09 09:46:14;;;;;;;7.10;2.65;;;;;;;19.25;46.45;68906.03;6010956;23;20031;-82
2022/05/09 09:48:39;;;;;;;7.22;2.80;;;;;;;19.30;46.70;68914.47;6037538;23;20030;-81
2022/05/09 09:51:10;;;;;;;6.97;2.78;;;;;;;19.51;47.80;68938.47;6038594;23;20046;-81
2022/05/09 09:53:50;;;;;;;6.45;2.47;;;;;;;19.34;46.73;68919.03;6041666;23;20103;-82
2022/05/09 09:56:21;;;;;;;7.78;3.08;;;;;;;19.59;46.85;68947.63;6036149;23;20072;-81
2022/05/09 09:58:49;;;;;;;10.18;2.80;;;;;;;19.67;46.12;68952.91;6039119;23;20023;-81
2022/05/09 10:01:24;;;;;;;11.32;2.97;;;;;;;20.04;47.79;68995.22;6039362;23;20070;-82
2022/05/09 10:04:14;;;;;;;7.32;2.75;;;;;;;20.17;47.00;69008.91;6037959;23;20335;-81
2022/05/09 10:07:10;;;;;;;6.95;3.03;;;;;;;20.34;45.89;69036.50;6055504;23;20108;-82
2022/05/09 10:10:07;;;;;;;11.05;3.78;;;;;;;19.94;44.18;68985.91;6040788;23;20521;-82
2022/05/09 10:12:34;;;;;;;7.13;2.95;;;;;;;19.73;47.13;68962.47;6019325;23;20020;-82
2022/05/09 10:15:01;;;;;;;7.95;3.30;;;;;;;19.96;46.85;68994.16;6038555;23;20039;-81
2022/05/09 10:17:30;;;;;;;9.40;2.92;;;;;;;20.22;47.06;69014.63;6041599;23;20313;-83
2022/05/09 10:19:57;;;;;;;;;;;;;;;20.46;45.64;69044.22;6043588;23;20019;-81
2022/05/09 10:25:24;;;;;;;6.68;3.10;;;;;;;20.54;46.35;69052.81;6039263;23;20026;-82
2022/05/09 10:28:19;;;;;;;10.13;3.60;;;;;;;20.33;47.12;69029.94;6040844;23;20023;-81
2022/05/09 10:30:49;;;;;;;8.48;3.40;;;;;;;20.37;45.62;69034.50;6043643;23;20031;-81
2022/05/09 10:33:31;;;;;;;10.52;3.78;;;;;;;20.64;46.71;69069.66;6041694;23;20023;-81
2022/05/09 10:36:01;;;;;;;9.10;3.90;;;;;;;20.68;46.63;69069.38;6067521;23;20019;-82
2022/05/09 10:38:34;;;;;;;8.27;3.85;;;;;;;20.81;48.15;69081.00;6045810;23;20020;-83
2022/05/09 10:41:09;;;;;;;12.48;4.22;;;;;;;21.01;47.48;69105.44;6049599;23;20051;-82
2022/05/09 10:43:46;;;;;;;8.73;4.30;;;;;;;;;;6067524;23;20863;-82
2022/05/09 10:46:13;;;;;;;9.27;4.75;;;;;;;20.67;46.27;69065.56;6048336;23;20083;-82
2022/05/09 10:48:49;;;;;;;9.25;4.35;;;;;;;20.62;46.30;69061.97;6049364;23;20109;-82
2022/05/09 10:51:21;;;;;;;11.43;4.63;;;;;;;20.68;47.93;69068.81;6048685;23;20034;-83
2022/05/09 10:54:01;;;;;;;11.52;4.80;;;;;;;20.66;46.69;69061.16;6044683;23;20058;-82
2022/05/09 10:56:33;;;;;;;8.32;4.93;;;;;;;20.62;47.50;69054.41;6076973;23;20035;-82
2022/05/09 10:59:01;;;;;;;9.90;4.15;;;;;;;;;;6048835;23;20020;-82
2022/05/09 11:01:36;;;;;;;10.82;4.85;;;;;;;20.89;47.52;69092.84;6049416;23;20030;-83
2022/05/09 11:04:03;;;;;;;12.55;5.10;;;;;;;20.87;47.83;69090.56;6070199;23;20528;-82
2022/05/09 11:06:28;;;;;;;8.25;4.40;;;;;;;;;;6064327;23;20026;-82
2022/05/09 11:09:08;;;;;;;11.50;5.00;;;;;;;21.11;48.29;69114.16;6068327;23;20023;-82
2022/05/09 11:11:46;;;;;;;10.63;4.78;;;;;;;21.27;47.37;69135.19;6068154;23;20014;-83
2022/05/09 11:14:22;;;;;;;8.98;4.25;;;;;;;21.31;47.32;69136.47;6064774;23;20026;-82
2022/05/09 11:16:47;;;;;;;8.60;4.60;;;;;;;;;;6067586;23;20022;-83
2022/05/09 11:19:21;;;;;;;9.30;5.13;;;;;;;21.75;46.32;69189.00;6067198;23;20130;-83
2022/05/09 11:22:10;;;;;;;9.93;4.70;;;;;;;21.77;44.88;69188.56;6072344;23;20493;-83
2022/05/09 11:25:13;;;;;;;11.00;5.45;;;;;;;21.82;45.53;69193.72;6049475;23;20102;-83
2022/05/09 11:28:03;;;;;;;8.10;4.63;;;;;;;22.00;45.97;69216.44;6065999;23;20026;-83
2022/05/09 11:30:38;;;;;;;9.20;5.65;;;;;;;21.91;45.45;69200.72;6052974;23;20083;-83
2022/05/09 11:33:45;;;;;;;10.60;4.80;;;;;;;22.21;45.65;69240.53;6063390;23;20647;-82
2022/05/09 11:36:16;;;;;;;9.25;5.53;;;;;;;22.14;44.02;69229.78;5975323;24;20101;-82
2022/05/09 11:39:26;;;;;;;13.40;6.00;;;;;;;21.95;45.08;69205.31;5976598;24;20028;-82
2022/05/09 11:45:26;;;;;;;9.57;4.20;;;;;;;22.56;43.09;69276.75;6075183;23;20025;-82
2022/05/09 11:48:29;;;;;;;10.70;5.55;;;;;;;22.42;44.12;69261.28;6063867;23;20469;-82
2022/05/09 11:51:24;;;;;;;9.65;6.32;;;;;;;22.44;43.82;69263.00;6049302;23;20018;-81
2022/05/09 11:53:57;;;;;;;12.43;5.95;;;;;;;22.50;44.94;69267.16;6040273;23;20568;-82
2022/05/09 11:56:23;;;;;;;10.02;5.93;;;;;;;22.58;44.17;69278.44;6066927;23;20030;-82
2022/05/09 11:58:49;;;;;;;9.35;5.38;;;;;;;22.92;43.95;69319.53;6063385;23;20019;-83
2022/05/09 12:01:14;;;;;;;8.63;5.22;;;;;;;22.87;41.97;69308.38;6057446;23;20029;-84
2022/05/09 12:03:40;;;;;;;9.82;4.90;;;;;;;22.73;41.94;69293.50;6059854;23;20586;-83
2022/05/09 12:06:26;;;;;;;7.28;4.47;;;;;;;22.84;43.25;69307.66;6056338;23;20081;-83
2022/05/09 12:08:53;;;;;;;9.00;4.57;;;;;;;23.12;41.00;69341.91;6057317;23;20022;-84
2022/05/09 12:11:46;;;;;;;7.50;4.75;;;;;;;22.84;41.38;69305.50;6059600;23;20026;-84
2022/05/09 12:14:50;;;;;;;11.35;5.15;;;;;;;22.72;41.79;69297.78;6058585;23;20014;-83
2022/05/09 12:17:22;;;;;;;9.90;5.72;;;;;;;23.13;41.60;69338.19;6059327;23;20023;-85